Weather History for Perry, IA

Change the Weather History Date:

Tuesday, January 1, 2013

  Actual Average Record
Temperature  
Mean Temperature 4 °F -  
Max Temperature 13 °F 25 °F 54 °F (1954)
Min Temperature -5 °F 9 °F -16 °F (1974)
Degree Days  
Heating Degree Days 61    
Moisture  
Dew Point -2 °F    
Average Humidity 79    
Maximum Humidity 86    
Minimum Humidity 68    
Precipitation  
Precipitation 0.00 in - - ()
Sea Level Pressure  
Sea Level Pressure 30.24 in    
Wind  
Wind Speed 6 mph (WSW)    
Max Wind Speed 8 mph    
Max Gust Speed -    
Visibility 10 miles    
Events      
Averages and records for this station are not official NWS values.
T = Trace of Precipitation, MM = Missing Value Source: NWS Daily Summary

Daily Weather History Graph

Daily Weather History Graph

Search for Another Location

Airport:

Trip Planner

Search our weather history database for the weather conditions in past years. The results will help you decide how hot, cold, wet, or windy it might be!

Date:

Astronomy

Jan. 01, 2013 Rise Set
Actual Time 7:44 AM CST 4:56 PM CST
Civil Twilight 7:12 AM CST 5:28 PM CST
Nautical Twilight 6:37 AM CST 6:03 PM CST
Astronomical Twilight 6:03 AM CST 6:37 PM CST
Moon 9:32 PM CST (1/1) 9:52 AM CST (1/1)
Length of Visible Light 10h 15m
Length of Day
9h 12m
Waning Gibbous, 83% of the Moon is Illuminated
Jan 1
Waning Gibbous
Jan 4
Last Quarter
Jan 11
New
Jan 18
First Quarter
Jan 26
Full

Hourly Weather History & Observations

Time (CST) Temp. Windchill Dew Point Humidity Pressure Visibility Wind Dir Wind Speed Gust Speed Precip Events Conditions
12:15 AM 3.9 °F -9.4 °F -1.3 °F 79% 30.25 in 10.0 mi North 8.1 mph - N/A   Clear
12:35 AM 3.4 °F -10.0 °F -1.5 °F 80% 30.25 in 10.0 mi NNW 8.1 mph - N/A   Clear
12:55 AM 2.5 °F -11.1 °F -2.2 °F 81% 30.24 in 10.0 mi NNW 8.1 mph - N/A   Clear
1:15 AM 2.3 °F -10.2 °F -2.6 °F 80% 30.24 in 10.0 mi NNW 6.9 mph - N/A   Clear
1:35 AM 0.7 °F -9.1 °F -4.0 °F 81% 30.25 in 10.0 mi NW 4.6 mph - N/A   Clear
1:55 AM -0.4 °F -12.0 °F -4.5 °F 83% 30.25 in 10.0 mi NW 5.8 mph - N/A   Clear
2:15 AM -1.3 °F -11.4 °F -5.1 °F 84% 30.27 in 10.0 mi NW 4.6 mph - N/A   Clear
2:35 AM -0.9 °F -14.1 °F -5.1 °F 83% 30.28 in 10.0 mi NW 6.9 mph - N/A   Clear
2:55 AM -1.7 °F -13.5 °F -5.8 °F 83% 30.28 in 10.0 mi NW 5.8 mph - N/A   Clear
3:15 AM -1.7 °F -14.9 °F -5.6 °F 83% 30.28 in 10.0 mi NW 6.9 mph - N/A   Clear
3:35 AM -2.0 °F -16.6 °F -6.0 °F 83% 30.28 in 10.0 mi NNW 8.1 mph - N/A   Clear
3:55 AM -2.4 °F -17.1 °F -6.7 °F 82% 30.28 in 10.0 mi NNW 8.1 mph - N/A   Clear
4:15 AM -2.2 °F -16.8 °F -6.2 °F 83% 30.28 in 10.0 mi NNW 8.1 mph - N/A   Clear
4:35 AM -1.3 °F -13.1 °F -5.1 °F 84% 30.28 in 10.0 mi NNW 5.8 mph - N/A   Clear
4:55 AM -0.8 °F -12.5 °F -4.9 °F 83% 30.28 in 10.0 mi NNW 5.8 mph - N/A   Clear
5:15 AM -1.3 °F -11.4 °F -5.6 °F 82% 30.28 in 10.0 mi NW 4.6 mph - N/A   Clear
5:35 AM -2.7 °F -13.1 °F -6.9 °F 82% 30.28 in 10.0 mi NW 4.6 mph - N/A   Clear
5:55 AM -3.5 °F -13.9 °F -7.6 °F 82% 30.27 in 10.0 mi NW 4.6 mph - N/A   Clear
6:15 AM -4.2 °F -18.0 °F -8.0 °F 84% 30.27 in 10.0 mi NW 6.9 mph - N/A   Clear
6:35 AM -4.9 °F -13.4 °F -8.5 °F 84% 30.27 in 10.0 mi NW 3.5 mph - N/A   Clear
6:55 AM -4.2 °F -18.0 °F -8.1 °F 83% 30.27 in 10.0 mi NNW 6.9 mph - N/A   Clear
7:15 AM -4.5 °F -18.4 °F -8.5 °F 83% 30.26 in 10.0 mi NNW 6.9 mph - N/A   Clear
7:35 AM -5.4 °F -16.2 °F -9.2 °F 84% 30.26 in 10.0 mi NW 4.6 mph - N/A   Clear
7:55 AM -5.4 °F -19.5 °F -9.2 °F 84% 30.27 in 10.0 mi NW 6.9 mph - N/A   Clear
8:15 AM -4.9 °F -17.4 °F -8.7 °F 84% 30.28 in 10.0 mi NW 5.8 mph - N/A   Clear
8:35 AM -4.9 °F -17.4 °F -8.9 °F 83% 30.28 in 10.0 mi NW 5.8 mph - N/A   Clear
8:55 AM -4.4 °F -15.0 °F -8.7 °F 82% 30.28 in 10.0 mi NW 4.6 mph - N/A   Clear
9:15 AM -3.3 °F -13.7 °F -7.8 °F 81% 30.28 in 10.0 mi NW 4.6 mph - N/A   Clear
9:35 AM -2.2 °F -10.4 °F -7.1 °F 80% 30.28 in 10.0 mi NW 3.5 mph - N/A   Clear
9:55 AM -1.3 °F -9.3 °F -6.2 °F 80% 30.29 in 10.0 mi West 3.5 mph - N/A   Clear
10:15 AM 0.1 °F - -5.4 °F 77% 30.30 in 10.0 mi Calm Calm - N/A   Clear
10:35 AM 1.4 °F -6.2 °F -4.9 °F 75% 30.31 in 10.0 mi WSW 3.5 mph - N/A   Clear
10:55 AM 2.5 °F -5.0 °F -4.2 °F 74% 30.31 in 10.0 mi WSW 3.5 mph - N/A   Clear
11:15 AM 3.2 °F -7.8 °F -3.3 °F 74% 30.31 in 10.0 mi SW 5.8 mph - N/A   Clear
11:35 AM 4.1 °F -3.2 °F -2.6 °F 74% 30.30 in 10.0 mi WSW 3.5 mph - N/A   Clear
11:55 AM 5.2 °F -3.8 °F -1.5 °F 74% 30.30 in 10.0 mi SW 4.6 mph - N/A   Clear
12:15 PM 6.4 °F -2.4 °F -0.4 °F 74% 30.29 in 10.0 mi SW 4.6 mph - N/A   Clear
12:35 PM 7.3 °F 0.5 °F -0.0 °F 72% 30.27 in 10.0 mi SW 3.5 mph - N/A   Clear
12:55 PM 8.4 °F 1.8 °F 1.0 °F 72% 30.26 in 10.0 mi SW 3.5 mph - N/A   Clear
1:15 PM 9.5 °F 3.0 °F 2.1 °F 72% 30.25 in 10.0 mi SW 3.5 mph - N/A   Clear
1:35 PM 10.6 °F 4.3 °F 2.3 °F 69% 30.24 in 10.0 mi SW 3.5 mph - N/A   Clear
1:55 PM 11.3 °F 3.3 °F 3.4 °F 70% 30.24 in 10.0 mi SW 4.6 mph - N/A   Clear
2:15 PM 11.8 °F 5.7 °F 3.7 °F 70% 30.24 in 10.0 mi SW 3.5 mph - N/A   Clear
2:35 PM 12.7 °F - 5.0 °F 71% 30.23 in 10.0 mi Calm Calm - N/A   Clear
2:55 PM 12.9 °F - 5.5 °F 72% 30.24 in 10.0 mi Calm Calm - N/A   Clear
3:15 PM 13.6 °F - 5.4 °F 70% 30.23 in 10.0 mi Calm Calm - N/A   Clear
3:35 PM 13.5 °F - 5.2 °F 70% 30.23 in 10.0 mi Calm Calm - N/A   Clear
3:55 PM 13.5 °F - 4.8 °F 68% 30.22 in 10.0 mi Calm Calm - N/A   Clear
4:15 PM 10.9 °F 4.7 °F 3.9 °F 73% 30.22 in 10.0 mi SSE 3.5 mph - N/A   Clear
4:35 PM 10.4 °F 4.0 °F 3.2 °F 73% 30.21 in 10.0 mi SSE 3.5 mph - N/A   Clear
4:55 PM 7.3 °F 0.5 °F 2.3 °F 80% 30.21 in 10.0 mi SSE 3.5 mph - N/A   Clear
5:15 PM 6.6 °F -0.3 °F 2.5 °F 83% 30.21 in 10.0 mi SSE 3.5 mph - N/A   Clear
5:35 PM 8.4 °F -0.1 °F 2.1 °F 76% 30.21 in 10.0 mi SSE 4.6 mph - N/A   Clear
5:55 PM 8.1 °F -0.5 °F 2.3 °F 77% 30.19 in 10.0 mi SSE 4.6 mph - N/A   Clear
6:15 PM 6.8 °F -2.0 °F 1.2 °F 78% 30.19 in 10.0 mi South 4.6 mph - N/A   Clear
6:35 PM 5.0 °F -8.1 °F -0.4 °F 78% 30.19 in 10.0 mi South 8.1 mph - N/A   Clear
6:55 PM 5.4 °F -5.2 °F -0.0 °F 78% 30.18 in 10.0 mi South 5.8 mph - N/A   Clear
7:15 PM 6.4 °F -3.9 °F 1.2 °F 79% 30.18 in 10.0 mi South 5.8 mph - N/A   Clear
7:35 PM 4.5 °F -4.7 °F -0.2 °F 81% 30.17 in 10.0 mi South 4.6 mph - N/A   Clear
7:55 PM 5.2 °F -3.8 °F -0.4 °F 78% 30.17 in 10.0 mi South 4.6 mph - N/A   Clear
8:15 PM 2.5 °F -5.0 °F -1.8 °F 82% 30.17 in 10.0 mi SSE 3.5 mph - N/A   Clear
8:35 PM 3.4 °F -4.0 °F -0.8 °F 83% 30.17 in 10.0 mi South 3.5 mph - N/A   Clear
8:55 PM 3.0 °F -8.0 °F -0.9 °F 84% 30.17 in 10.0 mi South 5.8 mph - N/A   Clear
9:15 PM 1.9 °F -9.2 °F -2.2 °F 83% 30.16 in 10.0 mi South 5.8 mph - N/A   Clear
9:35 PM 2.5 °F -8.6 °F -1.5 °F 84% 30.16 in 10.0 mi South 5.8 mph - N/A   Clear
9:55 PM 1.9 °F -10.6 °F -2.0 °F 83% 30.15 in 10.0 mi South 6.9 mph - N/A   Clear
10:15 PM 0.7 °F -10.7 °F -3.3 °F 83% 30.14 in 10.0 mi South 5.8 mph - N/A   Clear
10:35 PM 1.0 °F -11.7 °F -2.2 °F 86% 30.14 in 10.0 mi South 6.9 mph - N/A   Clear
10:55 PM 2.8 °F -8.2 °F -1.1 °F 84% 30.13 in 10.0 mi South 5.8 mph - N/A   Clear
11:15 PM 0.7 °F -12.1 °F -3.1 °F 84% 30.13 in 10.0 mi South 6.9 mph - N/A   Clear
11:35 PM 1.2 °F -10.1 °F -2.2 °F 86% 30.13 in 10.0 mi South 5.8 mph - N/A   Clear
11:55 PM 3.2 °F -10.3 °F -0.4 °F 85% 30.13 in 10.0 mi South 8.1 mph - N/A   Clear